Time;durP1;ratioP1;P1;durP2;ratioP2;P2;SDS_P1;SDS_P2;PMS_P1;PMS_P2;Temp;Humidity;BMP_temperature;BMP_pressure;BME280_temperature;BME280_humidity;BME280_pressure;Samples;Min_cycle;Max_cycle;Signal;HPM_P1;HPM_P2
2022/08/27 00:02:18;;;;;;;10.30;7.57;;;20.80;99.90;;;;;;5094869;28;20445;-59
2022/08/27 00:04:45;;;;;;;11.40;7.67;;;20.80;99.90;;;;;;5094989;28;20465;-58
2022/08/27 00:07:13;;;;;;;9.07;7.73;;;20.80;99.90;;;;;;5094802;28;20477;-58
2022/08/27 00:09:41;;;;;;;11.10;9.00;;;20.80;99.90;;;;;;5094896;28;20470;-57
2022/08/27 00:12:11;;;;;;;12.30;9.30;;;20.80;99.90;;;;;;5095048;28;20453;-66
2022/08/27 00:14:38;;;;;;;17.63;9.60;;;20.80;99.90;;;;;;5096248;28;20446;-61
2022/08/27 00:17:06;;;;;;;12.83;8.93;;;20.90;99.90;;;;;;5094994;28;20477;-59
2022/08/27 00:19:34;;;;;;;10.57;9.00;;;20.90;99.90;;;;;;5094489;28;20445;-59
2022/08/27 00:22:01;;;;;;;9.60;8.60;;;20.90;99.90;;;;;;5094480;28;20469;-56
2022/08/27 00:24:28;;;;;;;10.87;8.90;;;20.90;99.90;;;;;;5094702;28;20472;-55
2022/08/27 00:26:55;;;;;;;11.37;8.47;;;20.80;99.90;;;;;;5094321;28;20469;-57
2022/08/27 00:29:25;;;;;;;9.13;7.93;;;20.80;99.90;;;;;;5094625;28;20452;-57
2022/08/27 00:31:52;;;;;;;10.80;8.30;;;20.80;99.90;;;;;;5094607;28;20473;-55
2022/08/27 00:34:19;;;;;;;9.97;8.77;;;20.80;99.90;;;;;;5095217;28;20461;-59
2022/08/27 00:36:46;;;;;;;11.30;9.07;;;20.80;99.90;;;;;;5095586;28;20472;-60
2022/08/27 00:39:13;;;;;;;11.13;8.83;;;20.80;99.90;;;;;;5094820;28;20453;-59
2022/08/27 00:41:42;;;;;;;11.00;8.93;;;20.90;99.90;;;;;;5094304;28;20445;-55
2022/08/27 00:44:09;;;;;;;12.10;9.33;;;20.90;99.90;;;;;;5094593;28;20445;-57
2022/08/27 00:46:42;;;;;;;10.13;8.50;;;20.90;99.90;;;;;;5094479;28;20472;-57
2022/08/27 00:49:12;;;;;;;9.70;7.70;;;20.90;99.90;;;;;;5094155;28;20473;-57
2022/08/27 00:51:39;;;;;;;12.03;10.17;;;20.90;99.90;;;;;;5094273;28;20430;-56
2022/08/27 00:54:08;;;;;;;14.03;9.73;;;20.90;99.90;;;;;;5094358;28;20611;-55
2022/08/27 00:56:38;;;;;;;15.30;8.43;;;20.90;99.90;;;;;;5095066;28;20964;-62
2022/08/27 00:59:05;;;;;;;13.37;9.77;;;20.90;99.90;;;;;;5095860;28;20770;-58
2022/08/27 01:02:17;;;;;;;11.70;9.63;;;20.90;99.90;;;;;;5095028;28;20446;-59
2022/08/27 01:04:22;;;;;;;11.90;8.90;;;20.90;99.90;;;;;;5093970;28;20453;-59
2022/08/27 01:06:50;;;;;;;9.77;8.03;;;20.90;99.90;;;;;;5094121;28;20442;-58
2022/08/27 01:09:18;;;;;;;16.27;10.20;;;20.90;99.90;;;;;;5094437;28;20437;-57
2022/08/27 01:11:46;;;;;;;11.63;9.50;;;20.90;99.90;;;;;;5093966;28;20481;-59
2022/08/27 01:14:14;;;;;;;16.80;9.20;;;20.90;99.90;;;;;;5094648;28;20840;-57
2022/08/27 01:16:46;;;;;;;14.87;9.07;;;20.90;99.90;;;;;;5098658;28;20471;-62
2022/08/27 01:19:20;;;;;;;12.30;9.20;;;21.00;99.90;;;;;;5099100;28;20430;-59
2022/08/27 01:21:54;;;;;;;12.90;8.97;;;21.00;99.90;;;;;;5098428;28;20496;-53
2022/08/27 01:24:38;;;;;;;10.47;8.67;;;21.00;99.90;;;;;;5098030;28;20433;-62
2022/08/27 01:27:10;;;;;;;12.17;9.20;;;21.00;99.90;;;;;;5098264;28;20870;-59
2022/08/27 01:29:37;;;;;;;11.83;8.80;;;21.00;99.90;;;;;;5098266;28;20508;-58
2022/08/27 01:32:09;;;;;;;12.07;9.90;;;21.00;99.90;;;;;;5097741;28;20453;-55
2022/08/27 01:34:37;;;;;;;11.03;9.27;;;21.00;99.90;;;;;;5098104;28;20442;-58
2022/08/27 01:37:08;;;;;;;14.73;10.60;;;21.00;99.90;;;;;;5097738;28;20848;-58
2022/08/27 01:39:38;;;;;;;13.33;9.50;;;21.10;99.90;;;;;;5097944;28;20473;-57
2022/08/27 01:42:08;;;;;;;11.40;9.00;;;21.10;99.90;;;;;;5098413;28;20425;-57
2022/08/27 01:44:47;;;;;;;12.33;9.03;;;21.10;99.90;;;;;;5099388;28;20476;-57
2022/08/27 01:47:14;;;;;;;10.87;8.60;;;21.10;99.90;;;;;;5097652;28;20429;-59
2022/08/27 01:49:44;;;;;;;16.07;10.20;;;21.10;99.90;;;;;;5097875;28;20473;-59
2022/08/27 01:52:12;;;;;;;9.77;7.90;;;21.10;99.90;;;;;;5097833;28;20462;-60
2022/08/27 01:54:40;;;;;;;11.93;10.17;;;21.10;99.90;;;;;;5097671;28;20499;-53
2022/08/27 01:57:11;;;;;;;12.60;10.30;;;21.10;99.90;;;;;;5097349;28;20483;-61
2022/08/27 01:59:38;;;;;;;11.07;8.30;;;21.10;99.90;;;;;;5098264;28;20442;-61
2022/08/27 02:02:06;;;;;;;13.93;11.00;;;21.10;99.90;;;;;;5098027;28;20540;-58
2022/08/27 02:04:32;;;;;;;13.93;10.07;;;21.20;99.90;;;;;;5097601;28;20544;-61
2022/08/27 02:07:00;;;;;;;11.60;9.13;;;21.20;99.90;;;;;;5097264;28;20537;-62
2022/08/27 02:09:27;;;;;;;18.60;10.97;;;21.20;99.90;;;;;;5097462;28;20445;-59
2022/08/27 02:11:55;;;;;;;13.33;9.50;;;21.20;99.90;;;;;;5097054;28;20508;-55
2022/08/27 02:14:22;;;;;;;13.50;9.10;;;21.20;99.90;;;;;;5097373;28;20442;-53
2022/08/27 02:16:49;;;;;;;14.93;10.23;;;21.20;99.90;;;;;;5097261;28;20456;-55
2022/08/27 02:19:16;;;;;;;13.77;9.57;;;21.20;99.90;;;;;;5096891;28;20546;-57
2022/08/27 02:21:43;;;;;;;11.27;10.10;;;21.20;99.90;;;;;;5097047;28;20434;-55
2022/08/27 02:24:10;;;;;;;11.27;9.83;;;21.30;99.90;;;;;;5096745;28;20568;-58
2022/08/27 02:26:38;;;;;;;13.77;10.83;;;21.30;99.90;;;;;;5097163;28;20463;-61
2022/08/27 02:29:08;;;;;;;12.73;9.67;;;21.30;99.90;;;;;;5096707;28;20470;-56
2022/08/27 02:31:35;;;;;;;14.00;11.00;;;21.30;99.90;;;;;;5096593;28;20449;-57
2022/08/27 02:34:03;;;;;;;13.93;10.10;;;21.30;99.90;;;;;;5096852;28;20512;-57
2022/08/27 02:36:30;;;;;;;13.23;9.47;;;21.30;99.90;;;;;;5097385;28;20442;-61
2022/08/27 02:38:57;;;;;;;12.23;9.60;;;21.30;99.90;;;;;;5097426;28;20874;-61
2022/08/27 02:41:24;;;;;;;16.67;9.60;;;21.30;99.90;;;;;;5097120;28;20804;-56
2022/08/27 02:43:50;;;;;;;18.67;10.50;;;21.30;99.90;;;;;;5096618;28;20454;-61
2022/08/27 02:46:19;;;;;;;15.93;10.70;;;21.30;99.90;;;;;;5096434;28;20560;-60
2022/08/27 02:48:45;;;;;;;13.50;10.50;;;21.30;99.90;;;;;;5096443;28;20448;-58
2022/08/27 02:51:12;;;;;;;13.17;10.37;;;21.30;99.90;;;;;;5096643;28;20465;-59
2022/08/27 02:53:39;;;;;;;13.80;10.10;;;21.30;99.90;;;;;;5096651;28;20528;-56
2022/08/27 02:56:07;;;;;;;14.77;11.20;;;21.30;99.90;;;;;;5096170;28;20470;-59
2022/08/27 02:58:34;;;;;;;18.87;11.77;;;21.30;99.90;;;;;;5096526;28;20466;-58
2022/08/27 03:01:01;;;;;;;12.87;9.70;;;21.40;99.90;;;;;;5096424;28;20485;-60
2022/08/27 03:03:30;;;;;;;15.83;10.73;;;21.30;99.90;;;;;;5096152;28;20846;-58
2022/08/27 03:05:58;;;;;;;14.27;10.80;;;21.30;99.90;;;;;;5096022;28;20441;-59
2022/08/27 03:08:26;;;;;;;14.30;10.20;;;21.40;99.90;;;;;;5094932;28;20465;-59
2022/08/27 03:10:53;;;;;;;16.03;11.10;;;21.30;99.90;;;;;;5095837;28;20922;-60
2022/08/27 03:13:20;;;;;;;16.20;11.07;;;21.30;99.90;;;;;;5096225;28;20566;-59
2022/08/27 03:15:47;;;;;;;15.90;11.70;;;21.40;99.90;;;;;;5096483;28;20481;-54
2022/08/27 03:18:20;;;;;;;18.50;11.33;;;21.40;99.90;;;;;;5095978;28;20491;-61
2022/08/27 03:20:50;;;;;;;16.93;11.33;;;21.40;99.90;;;;;;5096663;28;20494;-58
2022/08/27 03:23:20;;;;;;;17.90;12.40;;;21.40;99.90;;;;;;5096040;28;20532;-61
2022/08/27 03:25:51;;;;;;;17.53;11.33;;;21.40;99.90;;;;;;5096050;28;20445;-57
2022/08/27 03:28:18;;;;;;;17.33;12.63;;;21.40;99.90;;;;;;5095923;28;20453;-59
2022/08/27 03:30:49;;;;;;;19.93;11.50;;;21.40;99.90;;;;;;5095836;28;20960;-59
2022/08/27 03:33:16;;;;;;;18.10;12.50;;;21.40;99.90;;;;;;5095859;28;20438;-60
2022/08/27 03:35:44;;;;;;;20.23;12.43;;;21.40;99.90;;;;;;5095756;28;21103;-59
2022/08/27 03:38:12;;;;;;;16.23;11.90;;;21.40;99.90;;;;;;5095085;28;20554;-58
2022/08/27 03:40:39;;;;;;;21.83;12.90;;;21.40;99.90;;;;;;5095279;28;20975;-60
2022/08/27 03:43:06;;;;;;;19.73;11.17;;;21.40;99.90;;;;;;5095378;28;20460;-60
2022/08/27 03:45:32;;;;;;;20.03;12.27;;;21.40;99.90;;;;;;5095231;28;20446;-61
2022/08/27 03:47:59;;;;;;;16.60;12.00;;;21.40;99.90;;;;;;5095557;28;20763;-58
2022/08/27 03:50:29;;;;;;;18.90;12.10;;;21.30;99.90;;;;;;5095197;28;21042;-60
2022/08/27 03:53:00;;;;;;;20.43;13.93;;;21.30;99.90;;;;;;5095604;28;20497;-60
2022/08/27 03:55:28;;;;;;;22.97;13.23;;;21.30;99.90;;;;;;5095172;28;20445;-59
2022/08/27 03:57:55;;;;;;;25.63;12.60;;;21.30;99.90;;;;;;5095360;28;20500;-55
2022/08/27 04:00:23;;;;;;;20.80;13.37;;;21.30;99.90;;;;;;5095318;28;20506;-55
2022/08/27 04:02:51;;;;;;;22.43;12.27;;;21.30;99.90;;;;;;5095116;28;20473;-56
2022/08/27 04:05:18;;;;;;;19.80;12.90;;;21.20;99.90;;;;;;5095021;28;20440;-59
2022/08/27 04:07:45;;;;;;;21.23;12.30;;;21.10;99.90;;;;;;5095239;28;20801;-59
2022/08/27 04:10:13;;;;;;;19.63;11.93;;;21.10;99.90;;;;;;5095316;28;20475;-60
2022/08/27 04:12:41;;;;;;;20.57;12.30;;;21.10;99.90;;;;;;5094910;28;20448;-59
2022/08/27 04:15:10;;;;;;;20.23;12.33;;;21.00;99.90;;;;;;5094835;28;20754;-57
2022/08/27 04:17:37;;;;;;;19.47;12.00;;;21.00;99.90;;;;;;5095224;28;20485;-61
2022/08/27 04:20:06;;;;;;;20.47;11.47;;;21.00;99.90;;;;;;5095053;28;20529;-59
2022/08/27 04:22:33;;;;;;;21.13;11.87;;;21.00;99.90;;;;;;5094857;28;20426;-56
2022/08/27 04:25:00;;;;;;;22.40;12.40;;;21.00;99.90;;;;;;5095061;28;20465;-59
2022/08/27 04:27:28;;;;;;;17.73;10.70;;;21.00;99.90;;;;;;5095220;28;20453;-59
2022/08/27 04:29:57;;;;;;;16.53;12.33;;;21.00;99.90;;;;;;5094745;28;20441;-60
2022/08/27 04:32:24;;;;;;;19.20;12.30;;;21.00;99.90;;;;;;5094932;28;20800;-62
2022/08/27 04:34:54;;;;;;;20.13;11.67;;;21.00;99.90;;;;;;5094793;28;20437;-58
2022/08/27 04:37:21;;;;;;;17.87;12.47;;;21.00;99.90;;;;;;5095212;28;20461;-63
2022/08/27 04:39:48;;;;;;;17.53;10.57;;;21.00;99.90;;;;;;5095547;28;20568;-60
2022/08/27 04:42:17;;;;;;;19.97;11.07;;;21.00;99.90;;;;;;5095301;28;20501;-61
2022/08/27 04:44:46;;;;;;;20.50;10.97;;;21.00;99.90;;;;;;5095644;28;20519;-62
2022/08/27 04:47:15;;;;;;;19.07;11.57;;;21.00;99.90;;;;;;5095590;28;20466;-61
2022/08/27 04:49:42;;;;;;;14.83;10.10;;;21.00;99.90;;;;;;5094832;28;20506;-62
2022/08/27 04:52:09;;;;;;;18.90;10.67;;;21.00;99.90;;;;;;5095110;28;20441;-60
2022/08/27 04:54:36;;;;;;;18.90;11.03;;;21.00;99.90;;;;;;5094656;28;20488;-60
2022/08/27 04:57:05;;;;;;;21.67;12.23;;;21.00;99.90;;;;;;5094581;28;20472;-60
2022/08/27 04:59:33;;;;;;;21.00;11.00;;;21.00;99.90;;;;;;5094310;28;20487;-57
2022/08/27 05:02:00;;;;;;;20.53;11.73;;;21.00;99.90;;;;;;5094258;28;20453;-60
2022/08/27 05:04:29;;;;;;;17.67;11.30;;;21.00;99.90;;;;;;5094407;28;20465;-59
2022/08/27 05:06:56;;;;;;;20.20;11.13;;;20.90;99.90;;;;;;5094421;28;20794;-56
2022/08/27 05:09:23;;;;;;;16.37;10.40;;;21.00;99.90;;;;;;5094057;28;20445;-62
2022/08/27 05:11:50;;;;;;;19.43;11.97;;;21.00;99.90;;;;;;5094244;28;20545;-60
2022/08/27 05:14:18;;;;;;;17.93;11.47;;;21.00;99.90;;;;;;5094384;28;20445;-53
2022/08/27 05:16:46;;;;;;;18.20;10.73;;;21.00;99.90;;;;;;5094536;28;20461;-59
2022/08/27 05:19:13;;;;;;;21.70;11.63;;;21.00;99.90;;;;;;5094044;28;20997;-59
2022/08/27 05:21:45;;;;;;;18.03;10.63;;;21.10;99.90;;;;;;5094094;28;20461;-60
2022/08/27 05:24:12;;;;;;;15.83;10.70;;;21.10;99.90;;;;;;5094176;28;20476;-61
2022/08/27 05:26:39;;;;;;;16.47;10.53;;;21.10;99.90;;;;;;5094017;28;20464;-55
2022/08/27 05:29:06;;;;;;;16.00;10.83;;;21.10;99.90;;;;;;5094158;28;20937;-61
2022/08/27 05:31:34;;;;;;;16.03;10.07;;;21.10;99.90;;;;;;5093894;28;20983;-57
2022/08/27 05:34:01;;;;;;;18.33;10.00;;;21.10;99.90;;;;;;5094024;28;20898;-55
2022/08/27 05:36:30;;;;;;;16.10;9.67;;;21.00;99.90;;;;;;5093895;28;20488;-60
2022/08/27 05:39:00;;;;;;;19.57;10.50;;;21.00;99.90;;;;;;5094195;28;20481;-58
2022/08/27 05:41:30;;;;;;;15.87;10.67;;;21.00;99.90;;;;;;5094489;28;20544;-62
2022/08/27 05:44:00;;;;;;;16.93;10.23;;;21.00;99.90;;;;;;5093820;28;20560;-60
2022/08/27 05:46:28;;;;;;;17.40;10.00;;;21.10;99.90;;;;;;5093886;28;20448;-59
2022/08/27 05:48:57;;;;;;;16.77;9.63;;;21.10;99.90;;;;;;5093921;28;20556;-57
2022/08/27 05:51:28;;;;;;;16.37;9.83;;;21.00;99.90;;;;;;5094118;28;20510;-64
2022/08/27 05:53:56;;;;;;;14.93;9.80;;;21.10;99.90;;;;;;5093918;28;20524;-60
2022/08/27 05:56:26;;;;;;;15.00;8.30;;;21.10;99.90;;;;;;5093690;28;20446;-61
2022/08/27 06:01:40;;;;;;;13.07;8.17;;;21.10;99.90;;;;;;5096226;28;20792;-59
2022/08/27 06:04:08;;;;;;;18.60;8.67;;;21.10;99.90;;;;;;5097630;28;20735;-60
2022/08/27 06:06:35;;;;;;;12.73;8.20;;;21.10;99.90;;;;;;5097455;28;20465;-58
2022/08/27 06:09:02;;;;;;;11.60;8.70;;;21.30;99.90;;;;;;5097515;28;20441;-59
2022/08/27 06:11:30;;;;;;;11.37;9.10;;;21.40;99.90;;;;;;5097351;28;20489;-62
2022/08/27 06:13:57;;;;;;;12.43;8.63;;;21.40;99.90;;;;;;5097428;28;20532;-59
2022/08/27 06:16:24;;;;;;;11.67;8.93;;;21.40;99.90;;;;;;5097376;28;20484;-59
2022/08/27 06:18:52;;;;;;;15.83;7.77;;;21.40;99.90;;;;;;5097277;28;20477;-62
2022/08/27 06:21:19;;;;;;;13.63;8.57;;;21.50;99.90;;;;;;5097042;28;20461;-57
2022/08/27 06:23:47;;;;;;;11.40;7.33;;;21.50;99.90;;;;;;5097256;28;20458;-59
2022/08/27 06:26:16;;;;;;;9.80;7.53;;;21.50;99.90;;;;;;5097224;28;20442;-59
2022/08/27 06:28:44;;;;;;;10.90;7.10;;;21.50;99.90;;;;;;5096839;28;20453;-56
2022/08/27 06:31:14;;;;;;;11.50;7.37;;;21.60;99.90;;;;;;5097103;28;20457;-60
2022/08/27 06:33:42;;;;;;;9.90;8.00;;;21.70;99.90;;;;;;5097027;28;20501;-59
2022/08/27 06:36:11;;;;;;;9.80;6.50;;;21.70;99.90;;;;;;5098443;28;20449;-66
2022/08/27 06:38:38;;;;;;;15.40;9.60;;;21.80;99.90;;;;;;5097503;28;20485;-60
2022/08/27 06:41:06;;;;;;;11.23;8.43;;;21.80;99.90;;;;;;5097392;28;20426;-56
2022/08/27 06:43:35;;;;;;;12.30;8.30;;;21.80;99.90;;;;;;5097409;28;20517;-61
2022/08/27 06:46:05;;;;;;;14.60;9.47;;;21.70;99.90;;;;;;5097194;28;20453;-59
2022/08/27 06:48:32;;;;;;;10.57;7.20;;;21.70;99.90;;;;;;5096986;28;20472;-58
2022/08/27 06:51:00;;;;;;;9.20;7.57;;;21.70;99.90;;;;;;5098346;28;20484;-61
2022/08/27 06:53:27;;;;;;;11.60;9.20;;;21.70;99.90;;;;;;5098559;28;20482;-59
2022/08/27 06:55:54;;;;;;;11.93;8.90;;;21.80;99.90;;;;;;5097295;28;20477;-59
2022/08/27 06:58:21;;;;;;;10.03;8.43;;;21.70;99.90;;;;;;5096670;28;20445;-56
2022/08/27 07:00:47;;;;;;;9.93;7.33;;;21.70;99.90;;;;;;5096544;28;20508;-62
2022/08/27 07:03:16;;;;;;;12.80;8.53;;;21.70;99.90;;;;;;5096515;28;20460;-58
2022/08/27 07:05:43;;;;;;;14.03;8.97;;;21.70;99.90;;;;;;5096899;28;20561;-60
2022/08/27 07:08:10;;;;;;;13.60;8.07;;;21.80;99.90;;;;;;5097001;28;20444;-60
2022/08/27 07:10:37;;;;;;;11.63;9.00;;;21.70;99.90;;;;;;5095957;28;20456;-59
2022/08/27 07:13:05;;;;;;;11.17;7.90;;;21.80;99.90;;;;;;5095287;28;20900;-60
2022/08/27 07:15:32;;;;;;;16.20;11.77;;;21.80;99.90;;;;;;5096052;28;20442;-60
2022/08/27 07:17:59;;;;;;;10.90;8.87;;;21.80;99.90;;;;;;5096536;28;20507;-66
2022/08/27 07:20:27;;;;;;;14.67;9.77;;;21.80;99.90;;;;;;5098367;28;20527;-60
2022/08/27 07:22:57;;;;;;;14.77;9.03;;;21.80;99.90;;;;;;5096216;28;21009;-60
2022/08/27 07:25:25;;;;;;;12.73;9.47;;;21.80;99.90;;;;;;5096079;28;20473;-62
2022/08/27 07:27:52;;;;;;;13.70;8.47;;;21.80;99.90;;;;;;5096083;28;20449;-62
2022/08/27 07:30:19;;;;;;;9.73;7.47;;;21.80;99.90;;;;;;5095705;28;20511;-57
2022/08/27 07:32:46;;;;;;;9.00;7.20;;;21.80;99.90;;;;;;5096208;28;20500;-61
2022/08/27 07:35:14;;;;;;;10.73;8.33;;;21.90;99.90;;;;;;5096139;28;20452;-52
2022/08/27 07:37:42;;;;;;;10.60;7.57;;;21.90;99.90;;;;;;5095510;28;20454;-58
2022/08/27 07:40:12;;;;;;;7.73;6.50;;;21.90;99.90;;;;;;5095628;28;20527;-61
2022/08/27 07:45:24;;;;;;;11.90;7.57;;;22.00;99.90;;;;;;5095460;28;20459;-59
2022/08/27 07:47:51;;;;;;;9.97;6.63;;;22.00;99.90;;;;;;5095676;28;20532;-58
2022/08/27 07:50:18;;;;;;;6.13;5.53;;;22.10;99.90;;;;;;5095294;28;20438;-56
2022/08/27 07:52:46;;;;;;;7.13;5.90;;;22.20;99.90;;;;;;5095459;28;20467;-56
2022/08/27 07:55:14;;;;;;;8.60;6.43;;;22.20;99.90;;;;;;5095456;28;20530;-59
2022/08/27 07:57:41;;;;;;;8.57;6.50;;;22.30;99.90;;;;;;5086986;28;20441;-61
2022/08/27 08:00:10;;;;;;;10.63;7.00;;;22.30;99.90;;;;;;5075054;28;20500;-64
2022/08/27 08:02:37;;;;;;;10.10;7.53;;;22.30;99.90;;;;;;5075482;28;20474;-61
2022/08/27 08:05:06;;;;;;;9.53;7.40;;;22.30;99.90;;;;;;5094714;28;20502;-33
2022/08/27 08:07:34;;;;;;;8.30;6.73;;;22.20;99.90;;;;;;5107212;28;20453;-51
2022/08/27 08:10:02;;;;;;;11.23;7.13;;;22.10;99.90;;;;;;5104893;28;20481;-60
2022/08/27 08:12:30;;;;;;;7.83;6.80;;;22.10;99.90;;;;;;5108130;28;20477;-34
2022/08/27 08:14:57;;;;;;;9.37;7.00;;;22.10;99.90;;;;;;5117390;28;20446;-59
2022/08/27 08:17:24;;;;;;;14.53;6.97;;;22.10;99.90;;;;;;5103428;28;20475;-56
2022/08/27 08:19:52;;;;;;;9.03;5.43;;;22.10;99.90;;;;;;5099400;28;20952;-59
2022/08/27 08:22:19;;;;;;;8.37;6.63;;;22.20;99.90;;;;;;5100098;28;20469;-60
2022/08/27 08:24:46;;;;;;;7.77;5.70;;;22.20;99.90;;;;;;5095536;28;20944;-61
2022/08/27 08:27:14;;;;;;;6.23;5.63;;;22.20;99.90;;;;;;5094779;28;20505;-63
2022/08/27 08:29:42;;;;;;;8.77;6.47;;;22.20;99.90;;;;;;5095028;28;20945;-66
2022/08/27 08:32:09;;;;;;;7.27;6.20;;;22.30;99.90;;;;;;5095048;28;20497;-63
2022/08/27 08:34:36;;;;;;;12.17;6.00;;;22.40;99.90;;;;;;5094445;28;20442;-60
2022/08/27 08:37:04;;;;;;;8.80;6.07;;;22.40;99.90;;;;;;5094714;28;20508;-60
2022/08/27 08:39:31;;;;;;;7.23;6.27;;;22.40;99.90;;;;;;5094714;28;20477;-60
2022/08/27 08:42:00;;;;;;;9.47;5.97;;;22.50;99.90;;;;;;5094764;28;20560;-60
2022/08/27 08:44:34;;;;;;;6.80;5.63;;;22.50;99.90;;;;;;5076710;28;20449;-58
2022/08/27 08:47:10;;;;;;;12.20;8.13;;;22.50;99.90;;;;;;5094698;28;20522;-62
2022/08/27 08:49:44;;;;;;;12.43;7.80;;;22.50;99.90;;;;;;5094415;28;20942;-61
2022/08/27 08:52:21;;;;;;;8.97;6.73;;;22.50;99.90;;;;;;5094319;28;20972;-61
2022/08/27 08:54:49;;;;;;;8.97;6.53;;;22.40;99.90;;;;;;5094800;28;20499;-61
2022/08/27 08:57:23;;;;;;;6.20;5.47;;;22.50;99.90;;;;;;5094753;28;20855;-64
2022/08/27 09:00:01;;;;;;;6.33;5.73;;;22.50;99.90;;;;;;5094344;28;20552;-62
2022/08/27 09:02:28;;;;;;;9.00;5.90;;;22.40;99.90;;;;;;5094572;28;20571;-56
2022/08/27 09:04:55;;;;;;;9.67;7.93;;;22.40;99.90;;;;;;5094451;28;20505;-60
2022/08/27 09:07:35;;;;;;;11.07;6.77;;;22.40;99.90;;;;;;5094175;28;20980;-60
2022/08/27 09:10:12;;;;;;;8.10;6.40;;;22.50;99.90;;;;;;5094589;28;20495;-60
2022/08/27 09:12:38;;;;;;;9.90;6.60;;;22.50;99.90;;;;;;5093656;28;20469;-62
2022/08/27 09:15:13;;;;;;;9.03;5.67;;;22.50;99.90;;;;;;5093406;28;20540;-60
2022/08/27 09:17:41;;;;;;;6.07;5.20;;;22.50;99.90;;;;;;5093428;28;20547;-61
2022/08/27 09:20:10;;;;;;;12.30;6.53;;;22.50;99.90;;;;;;5093767;28;20488;-60
2022/08/27 09:22:46;;;;;;;12.30;7.00;;;22.60;99.90;;;;;;5093885;28;20469;-60
2022/08/27 09:25:17;;;;;;;9.60;7.33;;;22.70;99.90;;;;;;5094851;28;20465;-61
2022/08/27 09:27:44;;;;;;;8.30;6.90;;;22.70;99.90;;;;;;5093712;28;20465;-59
2022/08/27 09:30:19;;;;;;;10.23;6.80;;;22.70;99.90;;;;;;5093174;28;20893;-57
2022/08/27 09:32:54;;;;;;;8.53;6.43;;;22.90;99.90;;;;;;5093390;28;20475;-61
2022/08/27 09:35:21;;;;;;;10.90;7.00;;;23.00;99.90;;;;;;5093826;28;20448;-58
2022/08/27 09:37:53;;;;;;;9.90;7.40;;;23.10;99.90;;;;;;5096879;28;20543;-63
2022/08/27 09:40:27;;;;;;;6.13;5.50;;;23.20;99.90;;;;;;5096839;28;20989;-59
2022/08/27 09:42:56;;;;;;;8.47;6.33;;;23.20;99.90;;;;;;5096600;28;20857;-58
2022/08/27 09:45:27;;;;;;;7.77;6.47;;;23.30;99.90;;;;;;5096821;28;20592;-60
2022/08/27 09:48:02;;;;;;;10.63;6.33;;;23.20;99.90;;;;;;5096766;28;20473;-62
2022/08/27 09:50:35;;;;;;;6.43;5.50;;;23.20;99.90;;;;;;5096784;28;20453;-60
2022/08/27 09:53:03;;;;;;;13.20;6.73;;;23.30;99.90;;;;;;5097973;28;20571;-54
2022/08/27 09:55:38;;;;;;;6.33;5.43;;;23.40;99.90;;;;;;5096554;28;20422;-58
2022/08/27 09:58:07;;;;;;;10.20;5.93;;;23.50;99.90;;;;;;5096088;28;20465;-57
2022/08/27 10:00:38;;;;;;;7.10;5.90;;;23.50;99.90;;;;;;5096117;28;20465;-57
2022/08/27 10:03:07;;;;;;;7.07;6.33;;;23.50;99.90;;;;;;5078932;28;20938;-57
2022/08/27 10:05:38;;;;;;;8.50;6.40;;;23.50;99.90;;;;;;5076197;28;20462;-55
2022/08/27 10:08:10;;;;;;;9.23;6.93;;;23.50;99.90;;;;;;5080676;28;20786;-60
2022/08/27 10:10:46;;;;;;;7.73;6.43;;;23.50;99.90;;;;;;5059825;28;1067084;-58
2022/08/27 10:13:17;;;;;;;8.73;6.20;;;23.50;99.90;;;;;;5097148;28;20183;-58
2022/08/27 10:15:57;;;;;;;9.20;6.10;;;23.50;99.90;;;;;;5097403;28;20526;-55
2022/08/27 10:18:33;;;;;;;8.30;6.07;;;23.40;99.90;;;;;;5096979;28;20422;-59
2022/08/27 10:21:07;;;;;;;7.53;6.50;;;23.40;99.90;;;;;;5097267;28;20963;-58
2022/08/27 10:23:42;;;;;;;7.27;5.73;;;23.40;99.90;;;;;;5097160;28;20430;-58
2022/08/27 10:26:14;;;;;;;7.03;6.10;;;23.40;99.90;;;;;;5097243;28;20720;-56
2022/08/27 10:28:54;;;;;;;6.07;5.33;;;23.50;99.90;;;;;;5097032;28;20429;-59
2022/08/27 10:31:33;;;;;;;12.03;6.00;;;23.60;99.90;;;;;;5097329;28;20433;-60
2022/08/27 10:34:14;;;;;;;8.33;4.83;;;23.70;99.90;;;;;;5097716;28;20430;-53
2022/08/27 10:36:51;;;;;;;10.63;5.53;;;23.70;99.90;;;;;;5095438;28;20444;-57
2022/08/27 10:39:29;;;;;;;5.60;5.00;;;23.70;99.90;;;;;;5095576;28;20447;-55
2022/08/27 10:42:07;;;;;;;5.73;5.23;;;23.70;99.90;;;;;;5096598;28;20447;-57
2022/08/27 10:44:49;;;;;;;6.63;5.03;;;23.70;99.90;;;;;;5096829;28;20426;-58
2022/08/27 10:47:30;;;;;;;5.37;4.83;;;23.70;99.90;;;;;;5096681;28;20501;-56
2022/08/27 10:50:05;;;;;;;7.07;5.30;;;23.70;99.90;;;;;;5098052;28;20426;-62
2022/08/27 10:52:37;;;;;;;5.50;4.87;;;23.70;99.90;;;;;;5098713;28;20436;-58
2022/08/27 10:55:12;;;;;;;6.40;5.40;;;23.80;99.90;;;;;;5097015;28;20430;-59
2022/08/27 10:57:53;;;;;;;5.67;5.17;;;23.80;99.90;;;;;;5096755;28;20550;-59
2022/08/27 11:00:22;;;;;;;6.00;5.40;;;23.80;99.90;;;;;;5095836;28;20472;-55
2022/08/27 11:03:06;;;;;;;9.20;6.00;;;23.80;99.90;;;;;;5096315;28;20499;-59
2022/08/27 11:05:41;;;;;;;6.87;5.70;;;23.80;99.90;;;;;;5096432;28;20452;-59
2022/08/27 11:08:13;;;;;;;6.63;5.70;;;23.70;99.90;;;;;;5096237;28;20465;-59
2022/08/27 11:10:45;;;;;;;5.70;5.20;;;23.70;99.90;;;;;;5096118;28;20446;-56
2022/08/27 11:13:18;;;;;;;6.20;5.60;;;23.70;99.90;;;;;;5096198;28;20476;-58
2022/08/27 11:15:49;;;;;;;5.10;4.60;;;23.60;99.90;;;;;;5095839;28;20468;-58
2022/08/27 11:18:23;;;;;;;6.17;5.30;;;23.60;99.90;;;;;;5096726;28;20529;-60
2022/08/27 11:20:58;;;;;;;5.67;5.00;;;23.60;99.90;;;;;;5098244;28;20461;-60
2022/08/27 11:23:30;;;;;;;6.43;5.83;;;23.60;99.90;;;;;;5097395;28;20440;-59
2022/08/27 11:25:59;;;;;;;6.43;5.13;;;23.60;99.90;;;;;;5096508;28;20417;-61
2022/08/27 11:28:36;;;;;;;6.20;5.43;;;23.60;99.90;;;;;;5096205;28;20463;-60
2022/08/27 11:31:09;;;;;;;7.63;6.83;;;23.70;99.90;;;;;;5095686;28;20461;-57
2022/08/27 11:33:45;;;;;;;6.90;5.90;;;23.80;99.90;;;;;;5095778;28;20430;-58
2022/08/27 11:36:33;;;;;;;6.30;5.00;;;23.90;99.90;;;;;;5095714;28;20499;-61
2022/08/27 11:39:04;;;;;;;6.90;5.90;;;23.90;99.90;;;;;;5095739;28;20441;-58
2022/08/27 11:41:48;;;;;;;8.43;5.67;;;23.90;99.90;;;;;;5095276;28;20575;-57
2022/08/27 11:44:16;;;;;;;6.30;4.80;;;24.00;99.90;;;;;;5095915;28;20436;-60
2022/08/27 11:46:46;;;;;;;6.40;5.30;;;24.00;99.90;;;;;;5097682;28;20959;-56
2022/08/27 11:49:24;;;;;;;5.77;5.20;;;24.00;99.90;;;;;;5095595;28;20457;-57
2022/08/27 11:51:58;;;;;;;5.10;4.60;;;24.00;99.90;;;;;;5095045;28;20457;-58
2022/08/27 11:54:30;;;;;;;5.37;4.87;;;24.00;99.90;;;;;;5095204;28;20544;-58
2022/08/27 11:56:57;;;;;;;5.60;5.10;;;24.00;99.90;;;;;;5095389;28;20567;-59
2022/08/27 11:59:31;;;;;;;8.23;5.27;;;24.00;99.90;;;;;;5095040;28;20448;-59
2022/08/27 12:02:12;;;;;;;6.70;5.53;;;23.90;99.90;;;;;;5095357;28;20477;-58
2022/08/27 12:04:42;;;;;;;6.00;5.40;;;23.90;99.90;;;;;;5095036;28;20436;-58
2022/08/27 12:07:28;;;;;;;5.87;5.20;;;23.90;99.90;;;;;;5095532;28;20458;-58
2022/08/27 12:10:16;;;;;;;5.80;5.30;;;23.90;99.90;;;;;;5097492;28;20905;-66
2022/08/27 12:12:54;;;;;;;4.30;3.90;;;23.90;99.90;;;;;;5097901;28;20489;-58
2022/08/27 12:15:27;;;;;;;7.33;4.50;;;23.90;99.90;;;;;;5095632;28;20430;-56
2022/08/27 12:18:07;;;;;;;5.70;4.30;;;24.10;99.90;;;;;;5094487;28;20472;-57
2022/08/27 12:20:46;;;;;;;4.97;4.30;;;24.30;99.90;;;;;;5094952;28;20548;-61
2022/08/27 12:23:41;;;;;;;4.43;4.03;;;24.50;99.90;;;;;;5094949;28;20480;-59
2022/08/27 12:26:26;;;;;;;7.67;4.63;;;24.70;99.90;;;;;;5095354;28;20449;-58
2022/08/27 12:29:16;;;;;;;4.30;3.90;;;24.90;99.90;;;;;;5094622;28;20449;-57
2022/08/27 12:31:45;;;;;;;4.53;4.13;;;25.20;99.90;;;;;;5094628;28;20479;-62
2022/08/27 12:34:15;;;;;;;4.60;3.97;;;25.40;99.90;;;;;;5095175;28;20469;-65
2022/08/27 12:36:47;;;;;;;4.50;3.67;;;25.50;99.90;;;;;;5097556;28;20519;-62
2022/08/27 12:39:17;;;;;;;5.33;4.83;;;25.60;99.90;;;;;;5095681;28;20501;-59
2022/08/27 12:41:46;;;;;;;7.10;6.50;;;25.70;99.90;;;;;;5094380;28;20476;-59
2022/08/27 12:44:15;;;;;;;5.10;4.60;;;25.90;99.90;;;;;;5094267;28;20477;-59
2022/08/27 12:46:48;;;;;;;4.93;4.53;;;26.00;99.90;;;;;;5094247;28;20917;-57
2022/08/27 12:49:18;;;;;;;8.30;4.90;;;26.10;99.90;;;;;;5094344;28;20472;-52
2022/08/27 12:51:47;;;;;;;5.43;4.53;;;26.20;99.90;;;;;;5074077;28;20438;-56
2022/08/27 12:54:28;;;;;;;4.90;4.40;;;26.20;99.90;;;;;;5074334;28;20922;-58
2022/08/27 12:57:04;;;;;;;5.20;4.70;;;26.30;99.90;;;;;;5074620;28;20434;-55
2022/08/27 13:00:08;;;;;;;5.37;4.87;;;26.30;99.90;;;;;;5081331;28;20508;-58